sensor_id;sensor_type;location;lat;lon;timestamp;P1;durP1;ratioP1;P2;durP2;ratioP2
51824;SDS011;37879;52.986;6.282;2022-09-24T00:02:02;51.60;;;33.95;;
51824;SDS011;37879;52.986;6.282;2022-09-24T00:04:29;49.22;;;33.25;;
51824;SDS011;37879;52.986;6.282;2022-09-24T00:06:55;46.63;;;31.08;;
51824;SDS011;37879;52.986;6.282;2022-09-24T00:09:21;48.40;;;31.77;;
51824;SDS011;37879;52.986;6.282;2022-09-24T00:11:48;49.45;;;33.42;;
51824;SDS011;37879;52.986;6.282;2022-09-24T00:14:15;48.17;;;32.40;;
51824;SDS011;37879;52.986;6.282;2022-09-24T00:16:42;49.80;;;33.45;;
51824;SDS011;37879;52.986;6.282;2022-09-24T00:19:10;48.38;;;32.30;;
51824;SDS011;37879;52.986;6.282;2022-09-24T00:21:37;48.03;;;31.98;;
51824;SDS011;37879;52.986;6.282;2022-09-24T00:24:07;50.97;;;32.47;;
51824;SDS011;37879;52.986;6.282;2022-09-24T00:26:34;65.05;;;40.83;;
51824;SDS011;37879;52.986;6.282;2022-09-24T00:29:20;51.38;;;32.90;;
51824;SDS011;37879;52.986;6.282;2022-09-24T00:31:46;54.65;;;34.75;;
51824;SDS011;37879;52.986;6.282;2022-09-24T00:34:13;53.92;;;33.97;;
51824;SDS011;37879;52.986;6.282;2022-09-24T00:36:39;51.00;;;33.33;;
51824;SDS011;37879;52.986;6.282;2022-09-24T00:39:05;48.08;;;33.25;;
51824;SDS011;37879;52.986;6.282;2022-09-24T00:41:33;53.13;;;35.17;;
51824;SDS011;37879;52.986;6.282;2022-09-24T00:43:59;57.38;;;36.60;;
51824;SDS011;37879;52.986;6.282;2022-09-24T00:46:39;46.63;;;31.23;;
51824;SDS011;37879;52.986;6.282;2022-09-24T00:49:11;55.08;;;35.63;;
51824;SDS011;37879;52.986;6.282;2022-09-24T00:51:37;54.10;;;34.10;;
51824;SDS011;37879;52.986;6.282;2022-09-24T00:54:05;50.55;;;32.55;;
51824;SDS011;37879;52.986;6.282;2022-09-24T00:56:33;55.53;;;35.85;;
51824;SDS011;37879;52.986;6.282;2022-09-24T00:59:00;65.82;;;36.47;;
51824;SDS011;37879;52.986;6.282;2022-09-24T01:01:27;58.33;;;35.00;;
51824;SDS011;37879;52.986;6.282;2022-09-24T01:03:55;59.10;;;34.97;;
51824;SDS011;37879;52.986;6.282;2022-09-24T01:06:21;53.85;;;34.75;;
51824;SDS011;37879;52.986;6.282;2022-09-24T01:08:48;53.75;;;33.38;;
51824;SDS011;37879;52.986;6.282;2022-09-24T01:14:42;52.85;;;35.28;;
51824;SDS011;37879;52.986;6.282;2022-09-24T01:17:02;68.55;;;37.85;;
51824;SDS011;37879;52.986;6.282;2022-09-24T01:25:01;60.17;;;36.03;;
51824;SDS011;37879;52.986;6.282;2022-09-24T01:30:06;62.70;;;39.03;;
51824;SDS011;37879;52.986;6.282;2022-09-24T01:32:34;63.70;;;37.90;;
51824;SDS011;37879;52.986;6.282;2022-09-24T01:35:18;84.18;;;43.65;;
51824;SDS011;37879;52.986;6.282;2022-09-24T01:37:53;58.97;;;38.72;;
51824;SDS011;37879;52.986;6.282;2022-09-24T01:40:21;60.95;;;38.95;;
51824;SDS011;37879;52.986;6.282;2022-09-24T01:42:48;70.47;;;41.50;;
51824;SDS011;37879;52.986;6.282;2022-09-24T01:45:15;59.95;;;37.85;;
51824;SDS011;37879;52.986;6.282;2022-09-24T01:47:42;68.35;;;40.88;;
51824;SDS011;37879;52.986;6.282;2022-09-24T01:50:11;67.65;;;39.22;;
51824;SDS011;37879;52.986;6.282;2022-09-24T01:52:49;66.78;;;40.88;;
51824;SDS011;37879;52.986;6.282;2022-09-24T01:55:18;70.25;;;40.33;;
51824;SDS011;37879;52.986;6.282;2022-09-24T01:57:46;59.75;;;37.78;;
51824;SDS011;37879;52.986;6.282;2022-09-24T02:00:14;70.03;;;40.03;;
51824;SDS011;37879;52.986;6.282;2022-09-24T02:07:44;66.05;;;40.10;;
51824;SDS011;37879;52.986;6.282;2022-09-24T02:10:15;61.30;;;39.92;;
51824;SDS011;37879;52.986;6.282;2022-09-24T02:12:41;71.47;;;40.97;;
51824;SDS011;37879;52.986;6.282;2022-09-24T02:15:10;68.45;;;39.17;;
51824;SDS011;37879;52.986;6.282;2022-09-24T02:17:39;64.45;;;38.47;;
51824;SDS011;37879;52.986;6.282;2022-09-24T02:20:08;65.70;;;38.72;;
51824;SDS011;37879;52.986;6.282;2022-09-24T02:22:36;73.07;;;41.53;;
51824;SDS011;37879;52.986;6.282;2022-09-24T02:25:03;62.60;;;39.25;;
51824;SDS011;37879;52.986;6.282;2022-09-24T02:27:30;69.85;;;40.40;;
51824;SDS011;37879;52.986;6.282;2022-09-24T02:29:57;63.55;;;37.75;;
51824;SDS011;37879;52.986;6.282;2022-09-24T02:32:24;66.32;;;39.17;;
51824;SDS011;37879;52.986;6.282;2022-09-24T02:34:52;69.03;;;40.17;;
51824;SDS011;37879;52.986;6.282;2022-09-24T02:37:20;59.53;;;37.05;;
51824;SDS011;37879;52.986;6.282;2022-09-24T02:39:47;58.50;;;35.95;;
51824;SDS011;37879;52.986;6.282;2022-09-24T02:42:15;63.70;;;38.35;;
51824;SDS011;37879;52.986;6.282;2022-09-24T02:44:42;67.43;;;39.08;;
51824;SDS011;37879;52.986;6.282;2022-09-24T02:47:08;58.83;;;38.05;;
51824;SDS011;37879;52.986;6.282;2022-09-24T02:49:34;76.53;;;39.95;;
51824;SDS011;37879;52.986;6.282;2022-09-24T02:52:01;61.45;;;39.03;;
51824;SDS011;37879;52.986;6.282;2022-09-24T02:54:27;64.20;;;41.30;;
51824;SDS011;37879;52.986;6.282;2022-09-24T02:56:53;62.00;;;39.22;;
51824;SDS011;37879;52.986;6.282;2022-09-24T02:59:19;65.53;;;41.30;;
51824;SDS011;37879;52.986;6.282;2022-09-24T03:01:46;63.60;;;40.10;;
51824;SDS011;37879;52.986;6.282;2022-09-24T03:04:14;64.18;;;41.55;;
51824;SDS011;37879;52.986;6.282;2022-09-24T03:06:40;60.97;;;38.30;;
51824;SDS011;37879;52.986;6.282;2022-09-24T03:09:07;60.88;;;37.38;;
51824;SDS011;37879;52.986;6.282;2022-09-24T03:11:33;72.53;;;41.35;;
51824;SDS011;37879;52.986;6.282;2022-09-24T03:13:59;61.60;;;38.65;;
51824;SDS011;37879;52.986;6.282;2022-09-24T03:16:26;63.40;;;37.95;;
51824;SDS011;37879;52.986;6.282;2022-09-24T03:18:52;62.20;;;38.55;;
51824;SDS011;37879;52.986;6.282;2022-09-24T03:21:19;57.60;;;36.05;;
51824;SDS011;37879;52.986;6.282;2022-09-24T03:23:46;61.03;;;39.10;;
51824;SDS011;37879;52.986;6.282;2022-09-24T03:26:12;56.30;;;35.58;;
51824;SDS011;37879;52.986;6.282;2022-09-24T03:28:38;64.00;;;40.45;;
51824;SDS011;37879;52.986;6.282;2022-09-24T03:31:05;54.83;;;34.85;;
51824;SDS011;37879;52.986;6.282;2022-09-24T03:33:45;71.53;;;39.60;;
51824;SDS011;37879;52.986;6.282;2022-09-24T03:38:40;56.65;;;37.35;;
51824;SDS011;37879;52.986;6.282;2022-09-24T03:41:07;62.28;;;36.28;;
51824;SDS011;37879;52.986;6.282;2022-09-24T03:43:34;58.13;;;37.00;;
51824;SDS011;37879;52.986;6.282;2022-09-24T03:46:01;61.78;;;38.33;;
51824;SDS011;37879;52.986;6.282;2022-09-24T03:48:27;67.00;;;38.58;;
51824;SDS011;37879;52.986;6.282;2022-09-24T03:50:56;64.18;;;39.75;;
51824;SDS011;37879;52.986;6.282;2022-09-24T03:53:27;63.65;;;40.95;;
51824;SDS011;37879;52.986;6.282;2022-09-24T03:55:54;79.43;;;43.45;;
51824;SDS011;37879;52.986;6.282;2022-09-24T03:58:21;73.55;;;41.05;;
51824;SDS011;37879;52.986;6.282;2022-09-24T04:00:47;68.68;;;39.88;;
51824;SDS011;37879;52.986;6.282;2022-09-24T04:03:13;63.88;;;38.45;;
51824;SDS011;37879;52.986;6.282;2022-09-24T04:05:39;57.38;;;36.47;;
51824;SDS011;37879;52.986;6.282;2022-09-24T04:08:06;60.00;;;37.88;;
51824;SDS011;37879;52.986;6.282;2022-09-24T04:10:33;59.85;;;36.85;;
51824;SDS011;37879;52.986;6.282;2022-09-24T04:12:59;57.83;;;37.15;;
51824;SDS011;37879;52.986;6.282;2022-09-24T04:15:25;62.55;;;38.55;;
51824;SDS011;37879;52.986;6.282;2022-09-24T04:17:55;62.08;;;38.38;;
51824;SDS011;37879;52.986;6.282;2022-09-24T04:20:23;62.45;;;37.95;;
51824;SDS011;37879;52.986;6.282;2022-09-24T04:22:50;75.18;;;41.30;;
51824;SDS011;37879;52.986;6.282;2022-09-24T04:25:17;60.83;;;38.55;;
51824;SDS011;37879;52.986;6.282;2022-09-24T04:27:44;74.35;;;43.53;;
51824;SDS011;37879;52.986;6.282;2022-09-24T04:30:11;75.43;;;42.40;;
51824;SDS011;37879;52.986;6.282;2022-09-24T04:32:37;66.55;;;39.47;;
51824;SDS011;37879;52.986;6.282;2022-09-24T04:35:04;64.63;;;39.22;;
51824;SDS011;37879;52.986;6.282;2022-09-24T04:37:30;78.20;;;41.17;;
51824;SDS011;37879;52.986;6.282;2022-09-24T04:39:56;63.67;;;38.92;;
51824;SDS011;37879;52.986;6.282;2022-09-24T04:42:23;77.75;;;43.28;;
51824;SDS011;37879;52.986;6.282;2022-09-24T04:44:49;72.05;;;42.03;;
51824;SDS011;37879;52.986;6.282;2022-09-24T04:47:15;67.05;;;39.78;;
51824;SDS011;37879;52.986;6.282;2022-09-24T04:49:42;72.55;;;42.83;;
51824;SDS011;37879;52.986;6.282;2022-09-24T04:52:12;73.55;;;41.63;;
51824;SDS011;37879;52.986;6.282;2022-09-24T04:54:39;82.80;;;43.78;;
51824;SDS011;37879;52.986;6.282;2022-09-24T04:57:09;71.20;;;42.80;;
51824;SDS011;37879;52.986;6.282;2022-09-24T04:59:35;69.53;;;40.83;;
51824;SDS011;37879;52.986;6.282;2022-09-24T05:02:01;81.85;;;44.40;;
51824;SDS011;37879;52.986;6.282;2022-09-24T05:04:27;67.43;;;39.30;;
51824;SDS011;37879;52.986;6.282;2022-09-24T05:06:58;76.90;;;44.65;;
51824;SDS011;37879;52.986;6.282;2022-09-24T05:09:27;70.32;;;42.67;;
51824;SDS011;37879;52.986;6.282;2022-09-24T05:11:55;77.57;;;42.72;;
51824;SDS011;37879;52.986;6.282;2022-09-24T05:14:21;64.78;;;38.45;;
51824;SDS011;37879;52.986;6.282;2022-09-24T05:16:48;81.40;;;43.22;;
51824;SDS011;37879;52.986;6.282;2022-09-24T05:19:14;61.38;;;36.55;;
51824;SDS011;37879;52.986;6.282;2022-09-24T05:21:40;63.45;;;35.85;;
51824;SDS011;37879;52.986;6.282;2022-09-24T05:24:06;62.92;;;40.65;;
51824;SDS011;37879;52.986;6.282;2022-09-24T05:26:32;60.80;;;34.67;;
51824;SDS011;37879;52.986;6.282;2022-09-24T05:29:17;59.80;;;36.90;;
51824;SDS011;37879;52.986;6.282;2022-09-24T05:31:43;64.13;;;37.95;;
51824;SDS011;37879;52.986;6.282;2022-09-24T05:34:10;56.80;;;34.40;;
51824;SDS011;37879;52.986;6.282;2022-09-24T05:36:36;61.10;;;35.50;;
51824;SDS011;37879;52.986;6.282;2022-09-24T05:39:02;61.67;;;36.58;;
51824;SDS011;37879;52.986;6.282;2022-09-24T05:41:28;54.35;;;33.63;;
51824;SDS011;37879;52.986;6.282;2022-09-24T05:43:54;59.60;;;34.17;;
51824;SDS011;37879;52.986;6.282;2022-09-24T05:46:21;65.60;;;35.50;;
51824;SDS011;37879;52.986;6.282;2022-09-24T05:48:47;53.72;;;31.30;;
51824;SDS011;37879;52.986;6.282;2022-09-24T05:51:13;45.53;;;27.75;;
51824;SDS011;37879;52.986;6.282;2022-09-24T05:53:39;46.00;;;28.83;;
51824;SDS011;37879;52.986;6.282;2022-09-24T05:56:06;39.67;;;24.33;;
51824;SDS011;37879;52.986;6.282;2022-09-24T05:58:34;36.40;;;22.10;;
51824;SDS011;37879;52.986;6.282;2022-09-24T06:01:00;27.30;;;19.58;;
51824;SDS011;37879;52.986;6.282;2022-09-24T06:03:27;33.05;;;19.80;;
51824;SDS011;37879;52.986;6.282;2022-09-24T06:05:56;27.92;;;16.73;;
51824;SDS011;37879;52.986;6.282;2022-09-24T06:08:28;28.05;;;16.55;;
51824;SDS011;37879;52.986;6.282;2022-09-24T06:10:58;26.90;;;15.32;;
51824;SDS011;37879;52.986;6.282;2022-09-24T06:13:25;25.55;;;13.73;;
51824;SDS011;37879;52.986;6.282;2022-09-24T06:15:51;25.90;;;14.20;;
51824;SDS011;37879;52.986;6.282;2022-09-24T06:18:17;23.63;;;15.02;;
51824;SDS011;37879;52.986;6.282;2022-09-24T06:20:43;26.20;;;13.38;;
51824;SDS011;37879;52.986;6.282;2022-09-24T06:23:10;21.73;;;12.43;;
51824;SDS011;37879;52.986;6.282;2022-09-24T06:25:37;19.70;;;11.63;;
51824;SDS011;37879;52.986;6.282;2022-09-24T06:28:03;18.52;;;9.95;;
51824;SDS011;37879;52.986;6.282;2022-09-24T06:30:33;18.27;;;9.32;;
51824;SDS011;37879;52.986;6.282;2022-09-24T06:33:01;14.93;;;8.55;;
51824;SDS011;37879;52.986;6.282;2022-09-24T06:35:29;16.02;;;8.07;;
51824;SDS011;37879;52.986;6.282;2022-09-24T06:37:55;12.93;;;7.25;;
51824;SDS011;37879;52.986;6.282;2022-09-24T06:40:22;19.02;;;8.95;;
51824;SDS011;37879;52.986;6.282;2022-09-24T06:42:50;9.80;;;5.75;;
51824;SDS011;37879;52.986;6.282;2022-09-24T06:45:17;14.57;;;5.53;;
51824;SDS011;37879;52.986;6.282;2022-09-24T06:47:43;12.52;;;5.40;;
51824;SDS011;37879;52.986;6.282;2022-09-24T06:50:09;9.45;;;4.55;;
51824;SDS011;37879;52.986;6.282;2022-09-24T06:52:36;13.80;;;5.03;;
51824;SDS011;37879;52.986;6.282;2022-09-24T06:55:02;9.23;;;3.85;;
51824;SDS011;37879;52.986;6.282;2022-09-24T06:57:28;11.23;;;3.75;;
51824;SDS011;37879;52.986;6.282;2022-09-24T06:59:54;9.00;;;4.45;;
51824;SDS011;37879;52.986;6.282;2022-09-24T07:02:20;9.75;;;3.33;;
51824;SDS011;37879;52.986;6.282;2022-09-24T07:04:47;14.57;;;4.28;;
51824;SDS011;37879;52.986;6.282;2022-09-24T07:07:13;13.77;;;3.47;;
51824;SDS011;37879;52.986;6.282;2022-09-24T07:09:54;10.82;;;3.05;;
51824;SDS011;37879;52.986;6.282;2022-09-24T07:12:21;10.13;;;2.53;;
51824;SDS011;37879;52.986;6.282;2022-09-24T07:14:47;12.35;;;2.75;;
51824;SDS011;37879;52.986;6.282;2022-09-24T07:17:14;11.60;;;2.60;;
51824;SDS011;37879;52.986;6.282;2022-09-24T07:19:40;9.30;;;2.83;;
51824;SDS011;37879;52.986;6.282;2022-09-24T07:22:06;5.97;;;2.30;;
51824;SDS011;37879;52.986;6.282;2022-09-24T07:24:32;10.98;;;2.75;;
51824;SDS011;37879;52.986;6.282;2022-09-24T07:26:59;11.40;;;3.33;;
51824;SDS011;37879;52.986;6.282;2022-09-24T07:29:27;11.02;;;2.70;;
51824;SDS011;37879;52.986;6.282;2022-09-24T07:31:53;11.20;;;2.28;;
51824;SDS011;37879;52.986;6.282;2022-09-24T07:34:19;8.07;;;2.30;;
51824;SDS011;37879;52.986;6.282;2022-09-24T07:36:46;12.07;;;2.20;;
51824;SDS011;37879;52.986;6.282;2022-09-24T07:39:12;10.60;;;2.83;;
51824;SDS011;37879;52.986;6.282;2022-09-24T07:41:39;26.25;;;3.97;;
51824;SDS011;37879;52.986;6.282;2022-09-24T07:44:06;8.50;;;2.15;;
51824;SDS011;37879;52.986;6.282;2022-09-24T07:46:32;9.68;;;1.90;;
51824;SDS011;37879;52.986;6.282;2022-09-24T07:48:59;10.73;;;2.22;;
51824;SDS011;37879;52.986;6.282;2022-09-24T07:51:25;13.35;;;2.65;;
51824;SDS011;37879;52.986;6.282;2022-09-24T07:53:52;7.93;;;1.75;;
51824;SDS011;37879;52.986;6.282;2022-09-24T07:56:18;13.88;;;2.70;;
51824;SDS011;37879;52.986;6.282;2022-09-24T07:58:51;7.03;;;1.90;;
51824;SDS011;37879;52.986;6.282;2022-09-24T08:01:17;7.30;;;2.10;;
51824;SDS011;37879;52.986;6.282;2022-09-24T08:03:44;9.68;;;1.95;;
51824;SDS011;37879;52.986;6.282;2022-09-24T08:06:10;4.32;;;1.17;;
51824;SDS011;37879;52.986;6.282;2022-09-24T08:08:37;9.40;;;2.35;;
51824;SDS011;37879;52.986;6.282;2022-09-24T08:11:04;4.10;;;1.27;;
51824;SDS011;37879;52.986;6.282;2022-09-24T08:13:30;8.85;;;1.33;;
51824;SDS011;37879;52.986;6.282;2022-09-24T08:15:56;9.13;;;1.70;;
51824;SDS011;37879;52.986;6.282;2022-09-24T08:18:26;9.32;;;2.00;;
51824;SDS011;37879;52.986;6.282;2022-09-24T08:20:53;6.70;;;1.52;;
51824;SDS011;37879;52.986;6.282;2022-09-24T08:23:22;9.23;;;2.83;;
51824;SDS011;37879;52.986;6.282;2022-09-24T08:25:48;5.47;;;1.90;;
51824;SDS011;37879;52.986;6.282;2022-09-24T08:28:14;6.80;;;1.33;;
51824;SDS011;37879;52.986;6.282;2022-09-24T08:30:44;5.78;;;1.70;;
51824;SDS011;37879;52.986;6.282;2022-09-24T08:33:10;9.73;;;2.90;;
51824;SDS011;37879;52.986;6.282;2022-09-24T08:35:37;8.07;;;1.38;;
51824;SDS011;37879;52.986;6.282;2022-09-24T08:38:06;7.80;;;1.88;;
51824;SDS011;37879;52.986;6.282;2022-09-24T08:40:50;8.43;;;1.75;;
51824;SDS011;37879;52.986;6.282;2022-09-24T08:48:39;4.10;;;0.70;;
51824;SDS011;37879;52.986;6.282;2022-09-24T08:51:07;5.57;;;1.40;;
51824;SDS011;37879;52.986;6.282;2022-09-24T08:53:44;5.97;;;1.15;;
51824;SDS011;37879;52.986;6.282;2022-09-24T08:56:12;10.00;;;1.27;;
51824;SDS011;37879;52.986;6.282;2022-09-24T08:58:41;7.75;;;1.08;;
51824;SDS011;37879;52.986;6.282;2022-09-24T09:06:11;3.70;;;0.82;;
51824;SDS011;37879;52.986;6.282;2022-09-24T09:11:14;7.75;;;2.28;;
51824;SDS011;37879;52.986;6.282;2022-09-24T09:13:46;6.18;;;1.70;;
51824;SDS011;37879;52.986;6.282;2022-09-24T09:16:24;6.70;;;1.10;;
51824;SDS011;37879;52.986;6.282;2022-09-24T09:18:52;5.50;;;1.30;;
51824;SDS011;37879;52.986;6.282;2022-09-24T09:21:32;4.90;;;1.77;;
51824;SDS011;37879;52.986;6.282;2022-09-24T09:23:59;4.22;;;1.05;;
51824;SDS011;37879;52.986;6.282;2022-09-24T09:26:26;5.07;;;1.25;;
51824;SDS011;37879;52.986;6.282;2022-09-24T09:28:55;5.70;;;0.93;;
51824;SDS011;37879;52.986;6.282;2022-09-24T09:46:56;4.28;;;0.98;;
51824;SDS011;37879;52.986;6.282;2022-09-24T09:49:25;4.20;;;1.15;;
51824;SDS011;37879;52.986;6.282;2022-09-24T09:51:53;3.85;;;1.15;;
51824;SDS011;37879;52.986;6.282;2022-09-24T09:54:21;6.43;;;0.95;;
51824;SDS011;37879;52.986;6.282;2022-09-24T09:56:48;3.50;;;0.75;;
51824;SDS011;37879;52.986;6.282;2022-09-24T09:59:19;5.88;;;1.00;;
51824;SDS011;37879;52.986;6.282;2022-09-24T10:01:46;13.48;;;1.83;;
51824;SDS011;37879;52.986;6.282;2022-09-24T10:07:03;3.25;;;1.10;;
51824;SDS011;37879;52.986;6.282;2022-09-24T10:09:29;3.92;;;0.80;;
51824;SDS011;37879;52.986;6.282;2022-09-24T10:12:05;5.97;;;1.08;;
51824;SDS011;37879;52.986;6.282;2022-09-24T10:14:31;7.30;;;1.40;;
51824;SDS011;37879;52.986;6.282;2022-09-24T10:16:57;4.85;;;1.30;;
51824;SDS011;37879;52.986;6.282;2022-09-24T10:19:29;9.07;;;1.20;;
51824;SDS011;37879;52.986;6.282;2022-09-24T10:21:56;7.18;;;1.52;;
51824;SDS011;37879;52.986;6.282;2022-09-24T10:24:24;7.80;;;0.88;;
51824;SDS011;37879;52.986;6.282;2022-09-24T10:26:51;3.45;;;1.25;;
51824;SDS011;37879;52.986;6.282;2022-09-24T10:29:24;6.13;;;1.55;;
51824;SDS011;37879;52.986;6.282;2022-09-24T10:32:16;10.20;;;1.35;;
51824;SDS011;37879;52.986;6.282;2022-09-24T10:34:53;5.78;;;1.60;;
51824;SDS011;37879;52.986;6.282;2022-09-24T10:37:20;4.78;;;1.35;;
51824;SDS011;37879;52.986;6.282;2022-09-24T10:39:55;9.13;;;2.10;;
51824;SDS011;37879;52.986;6.282;2022-09-24T10:42:25;4.57;;;1.13;;
51824;SDS011;37879;52.986;6.282;2022-09-24T10:44:52;4.70;;;0.95;;
51824;SDS011;37879;52.986;6.282;2022-09-24T10:52:40;5.82;;;1.27;;
51824;SDS011;37879;52.986;6.282;2022-09-24T10:55:16;4.20;;;0.70;;
51824;SDS011;37879;52.986;6.282;2022-09-24T10:57:51;5.68;;;1.50;;
51824;SDS011;37879;52.986;6.282;2022-09-24T11:00:21;5.75;;;1.35;;
51824;SDS011;37879;52.986;6.282;2022-09-24T11:05:36;9.52;;;1.70;;
51824;SDS011;37879;52.986;6.282;2022-09-24T11:08:50;7.85;;;1.30;;
51824;SDS011;37879;52.986;6.282;2022-09-24T11:31:35;6.63;;;1.13;;
51824;SDS011;37879;52.986;6.282;2022-09-24T11:44:23;7.03;;;1.70;;
51824;SDS011;37879;52.986;6.282;2022-09-24T11:51:59;6.18;;;1.20;;
51824;SDS011;37879;52.986;6.282;2022-09-24T11:57:14;7.10;;;1.50;;
51824;SDS011;37879;52.986;6.282;2022-09-24T12:02:15;3.95;;;1.25;;
51824;SDS011;37879;52.986;6.282;2022-09-24T12:05:02;4.70;;;1.27;;
51824;SDS011;37879;52.986;6.282;2022-09-24T12:10:30;4.13;;;0.65;;
51824;SDS011;37879;52.986;6.282;2022-09-24T12:12:50;4.18;;;1.30;;
51824;SDS011;37879;52.986;6.282;2022-09-24T12:15:26;4.80;;;0.98;;
51824;SDS011;37879;52.986;6.282;2022-09-24T12:18:07;3.88;;;1.83;;
51824;SDS011;37879;52.986;6.282;2022-09-24T12:21:20;5.47;;;1.33;;
51824;SDS011;37879;52.986;6.282;2022-09-24T12:23:27;7.53;;;1.73;;
51824;SDS011;37879;52.986;6.282;2022-09-24T12:25:54;4.78;;;1.10;;
51824;SDS011;37879;52.986;6.282;2022-09-24T12:28:22;5.65;;;1.52;;
51824;SDS011;37879;52.986;6.282;2022-09-24T12:31:12;4.72;;;1.33;;
51824;SDS011;37879;52.986;6.282;2022-09-24T12:36:52;6.28;;;1.63;;
51824;SDS011;37879;52.986;6.282;2022-09-24T12:39:21;5.28;;;1.48;;
51824;SDS011;37879;52.986;6.282;2022-09-24T12:41:50;5.07;;;1.23;;
51824;SDS011;37879;52.986;6.282;2022-09-24T12:44:28;9.57;;;2.17;;
51824;SDS011;37879;52.986;6.282;2022-09-24T12:46:57;8.93;;;1.90;;
51824;SDS011;37879;52.986;6.282;2022-09-24T12:51:54;8.18;;;2.17;;
51824;SDS011;37879;52.986;6.282;2022-09-24T12:54:28;5.93;;;1.60;;
51824;SDS011;37879;52.986;6.282;2022-09-24T12:57:08;7.22;;;1.95;;
51824;SDS011;37879;52.986;6.282;2022-09-24T12:59:44;5.88;;;1.05;;
51824;SDS011;37879;52.986;6.282;2022-09-24T13:02:16;7.07;;;2.83;;
51824;SDS011;37879;52.986;6.282;2022-09-24T13:04:43;9.80;;;1.85;;
51824;SDS011;37879;52.986;6.282;2022-09-24T13:07:26;10.02;;;2.17;;
51824;SDS011;37879;52.986;6.282;2022-09-24T13:09:52;4.72;;;1.33;;
51824;SDS011;37879;52.986;6.282;2022-09-24T13:12:20;6.78;;;1.77;;
51824;SDS011;37879;52.986;6.282;2022-09-24T13:15:16;4.68;;;1.15;;
51824;SDS011;37879;52.986;6.282;2022-09-24T13:17:34;8.35;;;1.33;;
51824;SDS011;37879;52.986;6.282;2022-09-24T13:20:03;7.07;;;1.50;;
51824;SDS011;37879;52.986;6.282;2022-09-24T13:22:31;6.93;;;1.30;;
51824;SDS011;37879;52.986;6.282;2022-09-24T13:35:23;8.15;;;2.00;;
51824;SDS011;37879;52.986;6.282;2022-09-24T13:37:54;5.20;;;1.08;;
51824;SDS011;37879;52.986;6.282;2022-09-24T13:40:24;5.65;;;1.50;;
51824;SDS011;37879;52.986;6.282;2022-09-24T13:42:58;3.65;;;1.02;;
51824;SDS011;37879;52.986;6.282;2022-09-24T13:45:25;7.40;;;1.60;;
51824;SDS011;37879;52.986;6.282;2022-09-24T13:47:55;8.40;;;2.05;;
51824;SDS011;37879;52.986;6.282;2022-09-24T13:52:56;9.30;;;1.85;;
51824;SDS011;37879;52.986;6.282;2022-09-24T13:57:49;7.75;;;1.60;;
51824;SDS011;37879;52.986;6.282;2022-09-24T14:00:16;6.68;;;1.58;;
51824;SDS011;37879;52.986;6.282;2022-09-24T14:03:03;5.97;;;1.33;;
51824;SDS011;37879;52.986;6.282;2022-09-24T14:05:32;9.27;;;1.33;;
51824;SDS011;37879;52.986;6.282;2022-09-24T14:10:31;7.85;;;1.70;;
51824;SDS011;37879;52.986;6.282;2022-09-24T14:13:17;1.67;;;0.60;;
51824;SDS011;37879;52.986;6.282;2022-09-24T14:15:56;3.00;;;0.95;;
51824;SDS011;37879;52.986;6.282;2022-09-24T14:18:24;3.72;;;0.90;;
51824;SDS011;37879;52.986;6.282;2022-09-24T14:21:13;2.78;;;0.70;;
51824;SDS011;37879;52.986;6.282;2022-09-24T14:23:48;3.40;;;0.90;;
51824;SDS011;37879;52.986;6.282;2022-09-24T14:26:30;4.40;;;1.20;;
51824;SDS011;37879;52.986;6.282;2022-09-24T14:28:57;4.03;;;0.75;;
51824;SDS011;37879;52.986;6.282;2022-09-24T14:31:27;4.07;;;0.90;;
51824;SDS011;37879;52.986;6.282;2022-09-24T14:33:53;6.22;;;0.73;;
51824;SDS011;37879;52.986;6.282;2022-09-24T14:36:19;5.70;;;1.90;;
51824;SDS011;37879;52.986;6.282;2022-09-24T14:41:26;7.40;;;1.40;;
51824;SDS011;37879;52.986;6.282;2022-09-24T14:43:55;3.40;;;1.42;;
51824;SDS011;37879;52.986;6.282;2022-09-24T14:46:25;3.42;;;1.10;;
51824;SDS011;37879;52.986;6.282;2022-09-24T14:49:13;3.00;;;0.73;;
51824;SDS011;37879;52.986;6.282;2022-09-24T14:51:49;5.70;;;1.40;;
51824;SDS011;37879;52.986;6.282;2022-09-24T14:57:09;5.45;;;1.50;;
51824;SDS011;37879;52.986;6.282;2022-09-24T15:02:03;6.93;;;2.42;;
51824;SDS011;37879;52.986;6.282;2022-09-24T15:04:30;6.30;;;2.13;;
51824;SDS011;37879;52.986;6.282;2022-09-24T15:06:57;10.00;;;2.67;;
51824;SDS011;37879;52.986;6.282;2022-09-24T15:09:26;8.20;;;2.60;;
51824;SDS011;37879;52.986;6.282;2022-09-24T15:11:53;10.30;;;3.13;;
51824;SDS011;37879;52.986;6.282;2022-09-24T15:14:21;4.60;;;2.15;;
51824;SDS011;37879;52.986;6.282;2022-09-24T15:16:52;11.55;;;4.10;;
51824;SDS011;37879;52.986;6.282;2022-09-24T15:19:22;10.98;;;3.28;;
51824;SDS011;37879;52.986;6.282;2022-09-24T15:21:52;10.50;;;2.13;;
51824;SDS011;37879;52.986;6.282;2022-09-24T15:24:18;13.32;;;3.03;;
51824;SDS011;37879;52.986;6.282;2022-09-24T15:26:46;8.13;;;1.85;;
51824;SDS011;37879;52.986;6.282;2022-09-24T15:29:19;9.63;;;1.80;;
51824;SDS011;37879;52.986;6.282;2022-09-24T15:31:48;5.43;;;1.58;;
51824;SDS011;37879;52.986;6.282;2022-09-24T15:34:14;11.23;;;2.97;;
51824;SDS011;37879;52.986;6.282;2022-09-24T15:36:40;9.55;;;2.05;;
51824;SDS011;37879;52.986;6.282;2022-09-24T15:39:08;7.93;;;1.92;;
51824;SDS011;37879;52.986;6.282;2022-09-24T15:41:35;7.38;;;1.65;;
51824;SDS011;37879;52.986;6.282;2022-09-24T15:44:01;10.00;;;2.88;;
51824;SDS011;37879;52.986;6.282;2022-09-24T15:46:27;7.57;;;2.40;;
51824;SDS011;37879;52.986;6.282;2022-09-24T15:48:53;9.63;;;2.13;;
51824;SDS011;37879;52.986;6.282;2022-09-24T15:51:20;5.18;;;1.83;;
51824;SDS011;37879;52.986;6.282;2022-09-24T15:53:47;7.53;;;2.20;;
51824;SDS011;37879;52.986;6.282;2022-09-24T15:56:14;8.45;;;1.90;;
51824;SDS011;37879;52.986;6.282;2022-09-24T15:58:40;4.40;;;1.48;;
51824;SDS011;37879;52.986;6.282;2022-09-24T16:01:09;6.40;;;2.03;;
51824;SDS011;37879;52.986;6.282;2022-09-24T16:03:38;9.25;;;1.60;;
51824;SDS011;37879;52.986;6.282;2022-09-24T16:06:04;9.75;;;3.30;;
51824;SDS011;37879;52.986;6.282;2022-09-24T16:08:30;12.13;;;3.08;;
51824;SDS011;37879;52.986;6.282;2022-09-24T16:10:56;9.73;;;2.78;;
51824;SDS011;37879;52.986;6.282;2022-09-24T16:13:22;8.63;;;2.03;;
51824;SDS011;37879;52.986;6.282;2022-09-24T16:15:50;6.50;;;2.53;;
51824;SDS011;37879;52.986;6.282;2022-09-24T16:18:16;8.20;;;1.85;;
51824;SDS011;37879;52.986;6.282;2022-09-24T16:20:42;12.50;;;4.30;;
51824;SDS011;37879;52.986;6.282;2022-09-24T16:23:13;13.70;;;3.53;;
51824;SDS011;37879;52.986;6.282;2022-09-24T16:25:40;13.73;;;2.58;;
51824;SDS011;37879;52.986;6.282;2022-09-24T16:28:06;8.15;;;2.58;;
51824;SDS011;37879;52.986;6.282;2022-09-24T16:30:34;12.38;;;2.67;;
51824;SDS011;37879;52.986;6.282;2022-09-24T16:33:00;6.63;;;2.17;;
51824;SDS011;37879;52.986;6.282;2022-09-24T16:35:26;9.85;;;2.47;;
51824;SDS011;37879;52.986;6.282;2022-09-24T16:37:52;8.05;;;1.58;;
51824;SDS011;37879;52.986;6.282;2022-09-24T16:40:18;7.00;;;2.20;;
51824;SDS011;37879;52.986;6.282;2022-09-24T16:42:44;9.13;;;1.92;;
51824;SDS011;37879;52.986;6.282;2022-09-24T16:45:10;6.93;;;1.73;;
51824;SDS011;37879;52.986;6.282;2022-09-24T16:47:38;4.90;;;1.20;;
51824;SDS011;37879;52.986;6.282;2022-09-24T16:50:04;6.88;;;1.15;;
51824;SDS011;37879;52.986;6.282;2022-09-24T16:52:30;4.57;;;0.68;;
51824;SDS011;37879;52.986;6.282;2022-09-24T16:54:56;4.55;;;0.85;;
51824;SDS011;37879;52.986;6.282;2022-09-24T16:57:23;7.22;;;1.13;;
51824;SDS011;37879;52.986;6.282;2022-09-24T16:59:49;6.90;;;2.85;;